createdAt,value
2022-10-01T00:00:25.284Z,2.50
2022-10-01T00:01:25.446Z,2.09
2022-10-01T00:02:25.553Z,2.20
2022-10-01T00:03:25.583Z,2.20
2022-10-01T00:04:25.686Z,2.29
2022-10-01T00:05:25.788Z,2.50
2022-10-01T00:06:25.887Z,2.29
2022-10-01T00:07:25.980Z,2.40
2022-10-01T00:08:26.084Z,2.29
2022-10-01T00:09:26.205Z,2.20
2022-10-01T00:10:26.281Z,2.20
2022-10-01T00:11:26.379Z,2.20
2022-10-01T00:12:26.474Z,2.29
2022-10-01T00:13:26.572Z,2.40
2022-10-01T00:14:26.667Z,2.50
2022-10-01T00:15:26.763Z,2.20
2022-10-01T00:16:26.929Z,2.20
2022-10-01T00:17:26.957Z,2.29
2022-10-01T00:18:27.059Z,2.20
2022-10-01T00:19:27.162Z,2.50
2022-10-01T00:20:27.250Z,2.20
2022-10-01T00:21:27.354Z,2.59
2022-10-01T00:22:27.447Z,2.40
2022-10-01T00:23:27.538Z,2.20
2022-10-01T00:24:27.653Z,2.29
2022-10-01T00:25:27.721Z,2.40
2022-10-01T00:26:27.808Z,2.50
2022-10-01T00:27:27.899Z,2.59
2022-10-01T00:28:28.096Z,2.29
2022-10-01T00:29:28.078Z,2.20
2022-10-01T00:30:28.172Z,2.90
2022-10-01T00:31:28.344Z,2.29
2022-10-01T00:32:28.354Z,2.59
2022-10-01T00:33:28.444Z,2.29
2022-10-01T00:34:28.535Z,2.29
2022-10-01T00:35:28.633Z,2.90
2022-10-01T00:36:28.730Z,2.29
2022-10-01T00:37:28.822Z,2.90
2022-10-01T00:38:28.915Z,2.59
2022-10-01T00:39:29.013Z,2.90
2022-10-01T00:40:29.161Z,2.59
2022-10-01T00:41:29.223Z,2.50
2022-10-01T00:42:29.272Z,2.70
2022-10-01T00:43:29.363Z,2.70
2022-10-01T00:44:29.451Z,2.70
2022-10-01T00:45:29.654Z,2.59
2022-10-01T00:46:29.634Z,2.79
2022-10-01T00:47:29.728Z,2.59
2022-10-01T00:48:29.815Z,2.70
2022-10-01T00:49:29.906Z,2.79
2022-10-01T00:50:29.995Z,2.50
2022-10-01T00:51:30.090Z,3.00
2022-10-01T00:52:30.179Z,2.79
2022-10-01T00:53:30.274Z,2.79
2022-10-01T00:54:30.368Z,2.70
2022-10-01T00:55:30.458Z,2.79
2022-10-01T00:56:30.574Z,2.79
2022-10-01T00:57:30.642Z,2.59
2022-10-01T00:58:30.740Z,2.90
2022-10-01T00:59:30.838Z,2.79
2022-10-01T01:00:30.934Z,3.00
2022-10-01T01:01:31.359Z,2.90
2022-10-01T01:02:31.177Z,2.90
2022-10-01T01:03:31.217Z,3.00
2022-10-01T01:04:31.313Z,3.00
2022-10-01T01:05:31.409Z,3.79
2022-10-01T01:06:31.506Z,3.90
2022-10-01T01:07:31.600Z,3.70
2022-10-01T01:08:31.701Z,3.79
2022-10-01T01:09:31.796Z,3.90
2022-10-01T01:10:31.894Z,3.59
2022-10-01T01:11:32.328Z,3.70
2022-10-01T01:12:32.111Z,3.59
2022-10-01T01:13:32.181Z,3.90
2022-10-01T01:14:32.277Z,4.30
2022-10-01T01:15:32.443Z,4.50
2022-10-01T01:16:32.478Z,4.80
2022-10-01T01:17:32.583Z,4.59
2022-10-01T01:18:32.683Z,4.90
2022-10-01T01:19:32.786Z,4.90
2022-10-01T01:20:32.883Z,4.90
2022-10-01T01:21:33.344Z,5.40
2022-10-01T01:22:33.083Z,4.80
2022-10-01T01:23:33.187Z,5.00
2022-10-01T01:24:33.296Z,5.69
2022-10-01T01:25:33.398Z,5.59
2022-10-01T01:26:33.501Z,5.80
2022-10-01T01:27:33.603Z,6.19
2022-10-01T01:28:33.734Z,6.30
2022-10-01T01:29:33.820Z,6.50
2022-10-01T01:30:33.924Z,6.40
2022-10-01T01:31:34.342Z,6.59
2022-10-01T01:32:34.147Z,6.80
2022-10-01T01:33:34.262Z,8.00
2022-10-01T01:34:34.366Z,8.50
2022-10-01T01:35:34.477Z,9.10
2022-10-01T01:36:34.586Z,9.19
2022-10-01T01:37:34.730Z,9.80
2022-10-01T01:38:34.800Z,9.80
2022-10-01T01:39:34.904Z,10.19
2022-10-01T01:40:35.018Z,10.19
2022-10-01T01:41:35.476Z,10.39
2022-10-01T01:42:35.239Z,10.60
2022-10-01T01:43:35.353Z,10.39
2022-10-01T01:44:35.486Z,10.50
2022-10-01T01:45:35.611Z,10.89
2022-10-01T01:46:35.688Z,11.39
2022-10-01T01:47:35.806Z,11.30
2022-10-01T01:48:35.922Z,11.30
2022-10-01T01:49:36.029Z,11.19
2022-10-01T01:50:36.142Z,11.19
2022-10-01T01:51:36.567Z,11.50
2022-10-01T01:52:36.367Z,11.50
2022-10-01T01:53:36.486Z,11.89
2022-10-01T01:54:36.601Z,11.69
2022-10-01T01:55:36.718Z,12.69
2022-10-01T01:56:36.833Z,12.80
2022-10-01T01:57:36.952Z,13.10
2022-10-01T01:58:37.066Z,13.10
2022-10-01T01:59:37.185Z,13.69
2022-10-01T02:00:37.322Z,12.89
2022-10-01T02:01:37.838Z,13.60
2022-10-01T02:02:37.635Z,13.69
2022-10-01T02:03:37.634Z,13.50
2022-10-01T02:04:37.752Z,14.39
2022-10-01T02:05:37.869Z,14.30
2022-10-01T02:06:37.982Z,15.10
2022-10-01T02:07:38.092Z,14.30
2022-10-01T02:08:38.214Z,14.30
2022-10-01T02:09:38.332Z,14.39
2022-10-01T02:10:38.444Z,14.89
2022-10-01T02:11:38.560Z,14.69
2022-10-01T02:12:38.671Z,14.60
2022-10-01T02:13:38.791Z,15.00
2022-10-01T02:14:38.905Z,15.30
2022-10-01T02:15:39.079Z,16.10
2022-10-01T02:16:39.155Z,16.50
2022-10-01T02:17:39.247Z,15.89
2022-10-01T02:18:39.357Z,16.39
2022-10-01T02:19:39.468Z,16.60
2022-10-01T02:20:39.581Z,15.50
2022-10-01T02:21:39.694Z,15.10
2022-10-01T02:22:39.815Z,14.50
2022-10-01T02:23:39.931Z,16.29
2022-10-01T02:24:40.046Z,15.30
2022-10-01T02:25:40.164Z,14.30
2022-10-01T02:26:40.282Z,15.00
2022-10-01T02:27:40.406Z,14.80
2022-10-01T02:28:40.522Z,15.19
2022-10-01T02:29:40.644Z,14.80
2022-10-01T02:30:40.761Z,14.89
2022-10-01T02:31:40.958Z,14.39
2022-10-01T02:32:41.025Z,14.60
2022-10-01T02:33:41.134Z,15.30
2022-10-01T02:34:41.249Z,14.69
2022-10-01T02:35:41.372Z,16.50
2022-10-01T02:36:41.518Z,16.00
2022-10-01T02:37:41.615Z,16.10
2022-10-01T02:38:41.737Z,15.80
2022-10-01T02:39:41.858Z,15.10
2022-10-01T02:40:41.981Z,15.10
2022-10-01T02:41:42.105Z,15.19
2022-10-01T02:42:42.228Z,15.39
2022-10-01T02:43:43.195Z,15.39
2022-10-01T02:44:42.480Z,15.60
2022-10-01T02:45:42.667Z,15.39
2022-10-01T02:46:42.720Z,15.60
2022-10-01T02:47:42.939Z,16.00
2022-10-01T02:48:42.963Z,16.29
2022-10-01T02:49:43.084Z,15.39
2022-10-01T02:50:43.207Z,15.00
2022-10-01T02:51:43.334Z,16.29
2022-10-01T02:52:43.450Z,15.00
2022-10-01T02:53:43.572Z,16.20
2022-10-01T02:54:43.691Z,15.50
2022-10-01T02:55:43.815Z,15.89
2022-10-01T02:56:48.874Z,15.89
2022-10-01T02:57:44.060Z,16.29
2022-10-01T02:58:44.185Z,15.39
2022-10-01T02:59:44.313Z,16.10
2022-10-01T03:00:44.437Z,16.50
2022-10-01T03:01:44.618Z,15.39
2022-10-01T03:02:44.763Z,16.00
2022-10-01T03:03:44.847Z,16.29
2022-10-01T03:04:44.951Z,16.10
2022-10-01T03:05:45.082Z,16.79
2022-10-01T03:06:45.216Z,15.80
2022-10-01T03:07:45.338Z,15.69
2022-10-01T03:08:45.461Z,16.00
2022-10-01T03:09:45.580Z,16.50
2022-10-01T03:10:46.849Z,16.20
2022-10-01T03:11:45.830Z,16.29
2022-10-01T03:12:45.956Z,16.70
2022-10-01T03:13:46.078Z,16.79
2022-10-01T03:14:46.205Z,16.89
2022-10-01T03:15:46.411Z,17.00
2022-10-01T03:16:46.464Z,16.29
2022-10-01T03:17:46.591Z,16.50
2022-10-01T03:18:46.745Z,17.29
2022-10-01T03:19:46.850Z,16.70
2022-10-01T03:20:46.971Z,17.00
2022-10-01T03:21:47.098Z,16.60
2022-10-01T03:22:47.227Z,16.20
2022-10-01T03:23:47.354Z,16.70
2022-10-01T03:24:47.486Z,17.00
2022-10-01T03:25:47.613Z,16.29
2022-10-01T03:26:47.742Z,17.39
2022-10-01T03:27:47.933Z,16.50
2022-10-01T03:28:47.998Z,16.39
2022-10-01T03:29:48.127Z,16.70
2022-10-01T03:30:48.255Z,16.20
2022-10-01T03:31:48.450Z,14.89
2022-10-01T03:32:48.514Z,17.20
2022-10-01T03:33:48.661Z,16.89
2022-10-01T03:34:48.765Z,16.10
2022-10-01T03:35:48.888Z,16.89
2022-10-01T03:36:49.015Z,17.20
2022-10-01T03:37:49.144Z,15.89
2022-10-01T03:38:49.271Z,15.60
2022-10-01T03:39:49.395Z,17.00
2022-10-01T03:40:49.518Z,16.39
2022-10-01T03:41:49.645Z,17.00
2022-10-01T03:42:49.768Z,16.50
2022-10-01T03:43:49.895Z,16.79
2022-10-01T03:44:50.020Z,16.60
2022-10-01T03:45:50.206Z,16.70
2022-10-01T03:46:52.242Z,17.10
2022-10-01T03:47:50.406Z,16.39
2022-10-01T03:48:50.533Z,16.89
2022-10-01T03:49:50.687Z,16.89
2022-10-01T03:50:50.795Z,17.89
2022-10-01T03:51:50.919Z,17.50
2022-10-01T03:52:51.045Z,16.89
2022-10-01T03:53:51.165Z,16.60
2022-10-01T03:54:51.289Z,16.39
2022-10-01T03:55:51.413Z,16.89
2022-10-01T03:56:51.546Z,16.20
2022-10-01T03:57:51.678Z,17.10
2022-10-01T03:58:52.010Z,17.10
2022-10-01T03:59:51.928Z,17.50
2022-10-01T04:00:52.254Z,16.20
2022-10-01T04:01:52.517Z,16.70
2022-10-01T04:02:52.362Z,16.60
2022-10-01T04:03:52.412Z,16.70
2022-10-01T04:04:52.513Z,16.29
2022-10-01T04:05:52.661Z,15.60
2022-10-01T04:06:52.767Z,15.80
2022-10-01T04:07:52.892Z,16.39
2022-10-01T04:08:53.012Z,16.10
2022-10-01T04:09:53.139Z,15.39
2022-10-01T04:10:53.262Z,15.80
2022-10-01T04:11:53.383Z,15.50
2022-10-01T04:12:53.510Z,15.39
2022-10-01T04:13:53.634Z,14.89
2022-10-01T04:14:53.755Z,14.30
2022-10-01T04:15:53.920Z,14.69
2022-10-01T04:16:53.996Z,14.50
2022-10-01T04:17:54.123Z,15.19
2022-10-01T04:18:54.242Z,14.80
2022-10-01T04:19:54.369Z,15.30
2022-10-01T04:20:54.517Z,14.30
2022-10-01T04:21:54.614Z,15.10
2022-10-01T04:22:54.736Z,14.89
2022-10-01T04:23:54.858Z,14.39
2022-10-01T04:24:54.981Z,14.69
2022-10-01T04:25:55.104Z,14.30
2022-10-01T04:26:55.222Z,13.80
2022-10-01T04:27:55.446Z,14.30
2022-10-01T04:28:55.466Z,14.69
2022-10-01T04:29:55.589Z,14.19
2022-10-01T04:30:55.714Z,13.50
2022-10-01T04:31:55.837Z,12.69
2022-10-01T04:32:55.952Z,12.60
2022-10-01T04:33:56.081Z,12.39
2022-10-01T04:34:56.203Z,12.50
2022-10-01T04:35:56.350Z,12.89
2022-10-01T04:36:56.445Z,12.19
2022-10-01T04:37:56.557Z,12.19
2022-10-01T04:39:01.757Z,13.00
2022-10-01T04:39:56.802Z,11.89
2022-10-01T04:40:56.926Z,11.00
2022-10-01T04:41:57.050Z,11.89
2022-10-01T04:42:57.175Z,12.00
2022-10-01T04:43:57.302Z,11.30
2022-10-01T04:44:57.432Z,12.10
2022-10-01T04:45:57.558Z,12.89
2022-10-01T04:46:57.784Z,12.39
2022-10-01T04:47:57.794Z,11.80
2022-10-01T04:48:57.930Z,11.80
2022-10-01T04:49:58.037Z,11.69
2022-10-01T04:50:58.182Z,11.89
2022-10-01T04:51:58.277Z,11.69
2022-10-01T04:52:58.393Z,11.80
2022-10-01T04:53:58.518Z,11.10
2022-10-01T04:54:58.643Z,11.69
2022-10-01T04:55:58.774Z,10.50
2022-10-01T04:56:58.892Z,10.10
2022-10-01T04:57:59.013Z,9.60
2022-10-01T04:58:59.131Z,9.80
2022-10-01T04:59:59.256Z,9.50
2022-10-01T05:01:01.990Z,9.60
2022-10-01T05:01:59.595Z,9.89
2022-10-01T05:02:59.631Z,9.30
2022-10-01T05:03:59.758Z,9.30
2022-10-01T05:04:59.876Z,8.50
2022-10-01T05:06:00.000Z,9.10
2022-10-01T05:07:00.143Z,8.69
2022-10-01T05:08:00.232Z,8.10
2022-10-01T05:09:00.351Z,8.00
2022-10-01T05:10:00.463Z,7.90
2022-10-01T05:11:00.605Z,9.39
2022-10-01T05:12:00.698Z,9.69
2022-10-01T05:13:00.820Z,9.60
2022-10-01T05:14:00.938Z,9.50
2022-10-01T05:15:01.052Z,9.00
2022-10-01T05:16:01.247Z,9.00
2022-10-01T05:17:01.293Z,9.10
2022-10-01T05:18:01.412Z,9.39
2022-10-01T05:19:01.531Z,8.89
2022-10-01T05:20:01.646Z,9.60
2022-10-01T05:21:01.757Z,9.19
2022-10-01T05:22:01.871Z,9.60
2022-10-01T05:23:02.091Z,8.89
2022-10-01T05:24:02.101Z,9.89
2022-10-01T05:25:02.216Z,9.19
2022-10-01T05:26:02.331Z,9.00
2022-10-01T05:27:02.447Z,9.19
2022-10-01T05:28:02.602Z,9.19
2022-10-01T05:29:02.680Z,9.30
2022-10-01T05:30:02.799Z,8.89
2022-10-01T05:31:03.029Z,9.19
2022-10-01T05:32:03.086Z,9.30
2022-10-01T05:33:03.150Z,8.39
2022-10-01T05:34:03.266Z,8.50
2022-10-01T05:35:03.385Z,8.39
2022-10-01T05:36:03.502Z,8.00
2022-10-01T05:37:03.621Z,9.00
2022-10-01T05:38:03.735Z,9.10
2022-10-01T05:39:03.875Z,8.69
2022-10-01T05:40:03.969Z,9.10
2022-10-01T05:41:04.082Z,8.50
2022-10-01T05:42:06.471Z,8.60
2022-10-01T05:43:04.321Z,8.69
2022-10-01T05:44:04.425Z,8.50
2022-10-01T05:45:04.556Z,8.80
2022-10-01T05:46:04.734Z,8.30
2022-10-01T05:47:04.771Z,8.39
2022-10-01T05:48:04.886Z,8.80
2022-10-01T05:49:05.004Z,9.00
2022-10-01T05:50:05.115Z,8.60
2022-10-01T05:51:05.229Z,7.59
2022-10-01T05:52:05.347Z,8.10
2022-10-01T05:53:05.462Z,8.30
2022-10-01T05:54:05.577Z,9.00
2022-10-01T05:55:05.716Z,8.39
2022-10-01T05:56:05.813Z,8.80
2022-10-01T05:57:05.924Z,8.30
2022-10-01T05:58:06.032Z,8.60
2022-10-01T05:59:06.145Z,8.80
2022-10-01T06:00:06.263Z,8.60
2022-10-01T06:01:06.377Z,8.50
2022-10-01T06:02:06.571Z,7.80
2022-10-01T06:03:06.755Z,8.30
2022-10-01T06:04:06.714Z,8.50
2022-10-01T06:05:06.831Z,8.50
2022-10-01T06:06:06.952Z,7.90
2022-10-01T06:07:07.073Z,8.50
2022-10-01T06:08:07.194Z,7.59
2022-10-01T06:09:07.310Z,7.90
2022-10-01T06:10:07.451Z,8.10
2022-10-01T06:11:07.544Z,7.80
2022-10-01T06:12:07.659Z,8.00
2022-10-01T06:13:07.786Z,7.69
2022-10-01T06:14:07.885Z,8.60
2022-10-01T06:15:08.003Z,8.10
2022-10-01T06:16:08.155Z,7.80
2022-10-01T06:17:08.217Z,7.69
2022-10-01T06:18:08.331Z,7.80
2022-10-01T06:19:08.438Z,8.00
2022-10-01T06:20:08.549Z,7.80
2022-10-01T06:21:08.659Z,8.00
2022-10-01T06:22:08.775Z,7.69
2022-10-01T06:23:08.888Z,7.80
2022-10-01T06:24:09.011Z,7.80
2022-10-01T06:25:09.115Z,8.10
2022-10-01T06:26:09.254Z,9.00
2022-10-01T06:27:09.338Z,8.50
2022-10-01T06:28:09.532Z,8.50
2022-10-01T06:29:09.561Z,8.00
2022-10-01T06:30:09.672Z,7.50
2022-10-01T06:31:09.785Z,8.39
2022-10-01T06:32:10.027Z,8.10
2022-10-01T06:33:10.014Z,7.30
2022-10-01T06:34:10.120Z,8.19
2022-10-01T06:35:10.234Z,8.30
2022-10-01T06:36:10.344Z,8.30
2022-10-01T06:37:10.455Z,8.00
2022-10-01T06:38:10.563Z,8.19
2022-10-01T06:39:10.678Z,8.60
2022-10-01T06:40:10.787Z,8.69
2022-10-01T06:41:10.896Z,8.10
2022-10-01T06:42:11.024Z,9.00
2022-10-01T06:43:11.105Z,8.60
2022-10-01T06:44:11.212Z,8.39
2022-10-01T06:45:11.325Z,8.00
2022-10-01T06:46:11.519Z,8.69
2022-10-01T06:47:11.540Z,8.60
2022-10-01T06:48:11.643Z,8.80
2022-10-01T06:49:11.752Z,8.19
2022-10-01T06:50:11.862Z,9.00
2022-10-01T06:51:11.970Z,8.69
2022-10-01T06:52:12.081Z,8.60
2022-10-01T06:53:12.193Z,8.19
2022-10-01T06:54:12.306Z,8.60
2022-10-01T06:55:16.457Z,8.39
2022-10-01T06:56:12.524Z,8.69
2022-10-01T06:57:12.639Z,8.60
2022-10-01T06:58:12.828Z,8.80
2022-10-01T06:59:12.914Z,9.10
2022-10-01T07:00:13.021Z,8.60
2022-10-01T07:01:13.179Z,9.50
2022-10-01T07:02:13.337Z,8.80
2022-10-01T07:03:13.349Z,8.69
2022-10-01T07:04:13.460Z,8.80
2022-10-01T07:05:13.571Z,9.10
2022-10-01T07:06:13.688Z,9.69
2022-10-01T07:07:13.794Z,9.39
2022-10-01T07:08:13.908Z,10.39
2022-10-01T07:09:14.016Z,9.60
2022-10-01T07:10:14.124Z,10.00
2022-10-01T07:11:14.234Z,10.10
2022-10-01T07:12:14.344Z,9.30
2022-10-01T07:13:14.465Z,9.80
2022-10-01T07:14:14.595Z,9.80
2022-10-01T07:15:14.678Z,10.10
2022-10-01T07:16:14.814Z,9.19
2022-10-01T07:17:14.894Z,9.89
2022-10-01T07:18:14.999Z,9.19
2022-10-01T07:19:15.110Z,10.39
2022-10-01T07:20:15.221Z,9.80
2022-10-01T07:21:15.329Z,10.10
2022-10-01T07:22:15.434Z,10.39
2022-10-01T07:23:15.543Z,8.69
2022-10-01T07:24:15.649Z,3.59
2022-10-01T07:25:15.750Z,1.70
2022-10-01T07:26:15.854Z,1.50
2022-10-01T07:27:15.964Z,10.00
2022-10-01T07:28:16.471Z,11.00
2022-10-01T07:29:16.178Z,11.00
2022-10-01T07:30:16.310Z,11.50
2022-10-01T07:31:16.508Z,10.80
2022-10-01T07:32:16.501Z,11.60
2022-10-01T07:33:16.608Z,11.30
2022-10-01T07:34:16.715Z,11.89
2022-10-01T07:35:16.823Z,12.10
2022-10-01T07:36:16.926Z,12.60
2022-10-01T07:37:17.028Z,11.80
2022-10-01T07:38:17.136Z,12.89
2022-10-01T07:39:17.243Z,13.10
2022-10-01T07:40:17.353Z,12.80
2022-10-01T07:41:17.464Z,13.50
2022-10-01T07:42:17.569Z,13.19
2022-10-01T07:43:17.680Z,14.19
2022-10-01T07:44:17.785Z,15.10
2022-10-01T07:45:17.894Z,14.39
2022-10-01T07:46:18.117Z,15.30
2022-10-01T07:47:18.106Z,15.30
2022-10-01T07:48:18.205Z,16.10
2022-10-01T07:49:18.315Z,15.69
2022-10-01T07:50:18.425Z,16.00
2022-10-01T07:51:18.532Z,16.10
2022-10-01T07:52:18.641Z,15.60
2022-10-01T07:53:18.752Z,16.00
2022-10-01T07:54:18.861Z,16.39
2022-10-01T07:55:18.967Z,15.39
2022-10-01T07:56:19.076Z,15.60
2022-10-01T07:57:21.143Z,16.50
2022-10-01T07:58:19.291Z,16.29
2022-10-01T07:59:19.391Z,16.29
2022-10-01T08:00:19.493Z,17.70
2022-10-01T08:01:19.663Z,19.29
2022-10-01T08:02:19.763Z,19.60
2022-10-01T08:03:19.788Z,20.00
2022-10-01T08:04:19.891Z,20.00
2022-10-01T08:05:19.988Z,18.89
2022-10-01T08:06:25.230Z,20.29
2022-10-01T08:07:20.177Z,21.39
2022-10-01T08:08:20.270Z,21.60
2022-10-01T08:09:20.371Z,20.50
2022-10-01T08:10:20.455Z,20.10
2022-10-01T08:11:20.547Z,20.79
2022-10-01T08:12:20.636Z,20.89
2022-10-01T08:13:20.724Z,21.20
2022-10-01T08:14:20.817Z,19.70
2022-10-01T08:15:20.907Z,20.60
2022-10-01T08:16:21.033Z,20.10
2022-10-01T08:17:21.110Z,19.89
2022-10-01T08:18:21.168Z,19.00
2022-10-01T08:19:21.256Z,20.70
2022-10-01T08:20:21.337Z,19.50
2022-10-01T08:21:21.420Z,19.79
2022-10-01T08:22:21.508Z,20.10
2022-10-01T08:23:21.591Z,19.70
2022-10-01T08:24:21.676Z,19.50
2022-10-01T08:25:21.760Z,20.10
2022-10-01T08:26:21.843Z,19.60
2022-10-01T08:27:21.924Z,20.29
2022-10-01T08:28:22.121Z,19.89
2022-10-01T08:29:22.076Z,20.50
2022-10-01T08:30:22.211Z,20.60
2022-10-01T08:31:22.301Z,20.29
2022-10-01T08:32:22.287Z,19.70
2022-10-01T08:33:22.379Z,19.79
2022-10-01T08:34:22.422Z,20.70
2022-10-01T08:35:22.493Z,20.70
2022-10-01T08:36:22.538Z,18.89
2022-10-01T08:37:22.601Z,18.89
2022-10-01T08:38:22.662Z,16.89
2022-10-01T08:39:22.722Z,17.20
2022-10-01T08:40:22.789Z,17.39
2022-10-01T08:41:23.438Z,17.00
2022-10-01T08:42:22.924Z,16.89
2022-10-01T08:43:22.986Z,18.00
2022-10-01T08:44:23.073Z,17.50
2022-10-01T08:45:23.112Z,20.29
2022-10-01T08:46:23.172Z,16.70
2022-10-01T08:47:23.239Z,15.00
2022-10-01T08:48:23.299Z,14.60
2022-10-01T08:49:23.381Z,14.10
2022-10-01T08:50:23.423Z,14.89
2022-10-01T08:51:23.485Z,15.80
2022-10-01T08:52:23.549Z,15.39
2022-10-01T08:53:23.613Z,14.60
2022-10-01T08:54:23.683Z,14.39
2022-10-01T08:55:23.755Z,14.80
2022-10-01T08:56:23.823Z,14.69
2022-10-01T08:57:23.890Z,13.89
2022-10-01T08:58:23.959Z,14.69
2022-10-01T08:59:27.322Z,14.19
2022-10-01T09:00:24.114Z,13.50
2022-10-01T09:01:24.211Z,13.69
2022-10-01T09:02:24.245Z,12.80
2022-10-01T09:03:24.319Z,13.00
2022-10-01T09:04:24.450Z,13.60
2022-10-01T09:05:24.489Z,11.69
2022-10-01T09:06:24.529Z,12.00
2022-10-01T09:07:24.592Z,12.39
2022-10-01T09:08:24.667Z,11.30
2022-10-01T09:09:24.728Z,12.60
2022-10-01T09:10:24.792Z,11.19
2022-10-01T09:11:24.846Z,10.00
2022-10-01T09:12:24.912Z,9.89
2022-10-01T09:13:24.970Z,10.19
2022-10-01T09:14:25.040Z,9.19
2022-10-01T09:15:25.093Z,9.19
2022-10-01T09:16:25.220Z,8.80
2022-10-01T09:17:25.195Z,7.69
2022-10-01T09:18:25.244Z,7.30
2022-10-01T09:19:25.297Z,6.69
2022-10-01T09:20:25.344Z,7.59
2022-10-01T09:21:25.420Z,7.40
2022-10-01T09:22:25.444Z,7.00
2022-10-01T09:23:25.501Z,6.90
2022-10-01T09:24:25.542Z,6.30
2022-10-01T09:25:25.579Z,6.19
2022-10-01T09:26:25.945Z,5.69
2022-10-01T09:27:25.630Z,4.69
2022-10-01T09:28:25.686Z,4.59
2022-10-01T09:29:25.665Z,4.09
2022-10-01T09:30:25.673Z,3.90
2022-10-01T09:31:25.716Z,3.40
2022-10-01T09:32:25.688Z,3.20
2022-10-01T09:33:25.692Z,3.00
2022-10-01T09:34:25.692Z,3.40
2022-10-01T09:35:25.693Z,3.00
2022-10-01T09:36:25.690Z,2.79
2022-10-01T09:37:25.706Z,3.09
2022-10-01T09:38:25.674Z,3.20
2022-10-01T09:39:25.668Z,2.70
2022-10-01T09:40:25.656Z,2.79
2022-10-01T09:41:25.641Z,2.79
2022-10-01T09:42:25.616Z,2.59
2022-10-01T09:43:25.588Z,2.50
2022-10-01T09:44:25.562Z,2.09
2022-10-01T09:45:25.647Z,2.09
2022-10-01T09:46:25.517Z,2.20
2022-10-01T09:47:25.495Z,2.00
2022-10-01T09:48:25.473Z,2.29
2022-10-01T09:49:25.451Z,2.00
2022-10-01T09:50:25.429Z,1.90
2022-10-01T09:51:25.404Z,2.50
2022-10-01T09:52:25.381Z,2.20
2022-10-01T09:53:25.381Z,2.40
2022-10-01T09:54:25.342Z,2.09
2022-10-01T09:55:25.322Z,2.20
2022-10-01T09:56:25.312Z,2.29
2022-10-01T09:57:25.309Z,2.29
2022-10-01T09:58:25.307Z,3.00
2022-10-01T09:59:25.312Z,2.40
2022-10-01T10:00:25.319Z,2.29
2022-10-01T10:01:25.317Z,2.40
2022-10-01T10:02:25.407Z,2.40
2022-10-01T10:03:25.489Z,2.00
2022-10-01T10:04:25.299Z,2.20
2022-10-01T10:05:25.294Z,2.20
2022-10-01T10:06:25.281Z,2.29
2022-10-01T10:07:25.270Z,2.29
2022-10-01T10:08:25.231Z,2.40
2022-10-01T10:09:25.220Z,2.29
2022-10-01T10:10:26.037Z,1.90
2022-10-01T10:11:25.130Z,2.09
2022-10-01T10:12:25.084Z,2.00
2022-10-01T10:13:25.037Z,1.90
2022-10-01T10:14:24.991Z,1.90
2022-10-01T10:15:24.943Z,2.20
2022-10-01T10:16:24.948Z,1.90
2022-10-01T10:17:24.822Z,2.09
2022-10-01T10:18:24.757Z,2.00
2022-10-01T10:19:24.687Z,2.00
2022-10-01T10:20:24.656Z,2.59
2022-10-01T10:21:24.577Z,1.79
2022-10-01T10:22:24.528Z,2.09
2022-10-01T10:23:24.499Z,2.00
2022-10-01T10:24:24.457Z,2.20
2022-10-01T10:25:24.457Z,2.20
2022-10-01T10:26:24.412Z,2.29
2022-10-01T10:27:24.395Z,2.29
2022-10-01T10:28:24.501Z,2.40
2022-10-01T10:29:24.380Z,2.29
2022-10-01T10:30:24.380Z,2.50
2022-10-01T10:31:24.620Z,2.70
2022-10-01T10:32:24.367Z,2.40
2022-10-01T10:33:24.347Z,2.09
2022-10-01T10:34:24.330Z,2.20
2022-10-01T10:35:24.310Z,2.20
2022-10-01T10:36:24.282Z,2.40
2022-10-01T10:37:24.251Z,2.00
2022-10-01T10:38:26.207Z,1.90
2022-10-01T10:39:24.161Z,2.09
2022-10-01T10:40:28.590Z,1.90
2022-10-01T10:41:24.069Z,2.29
2022-10-01T10:42:23.980Z,2.29
2022-10-01T10:43:23.917Z,2.09
2022-10-01T10:44:23.860Z,1.90
2022-10-01T10:45:23.801Z,2.29
2022-10-01T10:46:23.781Z,2.09
2022-10-01T10:47:23.707Z,2.20
2022-10-01T10:48:23.668Z,2.29
2022-10-01T10:49:23.638Z,2.20
2022-10-01T10:50:23.606Z,2.79
2022-10-01T10:51:23.575Z,2.20
2022-10-01T10:52:23.568Z,2.29
2022-10-01T10:53:23.531Z,2.50
2022-10-01T10:54:23.518Z,2.50
2022-10-01T10:55:23.513Z,2.20
2022-10-01T10:56:23.522Z,2.59
2022-10-01T10:57:23.537Z,2.70
2022-10-01T10:58:23.519Z,2.50
2022-10-01T10:59:23.530Z,2.59
2022-10-01T11:00:23.546Z,3.00
2022-10-01T11:01:23.661Z,2.70
2022-10-01T11:02:23.672Z,2.90
2022-10-01T11:03:23.604Z,3.00
2022-10-01T11:04:23.625Z,3.09
2022-10-01T11:05:23.657Z,3.00
2022-10-01T11:06:23.683Z,3.20
2022-10-01T11:07:23.713Z,3.70
2022-10-01T11:08:23.746Z,3.09
2022-10-01T11:09:23.784Z,3.29
2022-10-01T11:10:25.822Z,3.20
2022-10-01T11:11:23.860Z,3.59
2022-10-01T11:12:23.900Z,4.19
2022-10-01T11:13:23.967Z,4.19
2022-10-01T11:14:24.127Z,4.80
2022-10-01T11:15:24.027Z,4.50
2022-10-01T11:16:24.153Z,4.90
2022-10-01T11:17:24.102Z,5.59
2022-10-01T11:18:24.141Z,4.40
2022-10-01T11:19:24.181Z,5.00
2022-10-01T11:20:24.225Z,5.19
2022-10-01T11:21:24.272Z,4.40
2022-10-01T11:22:24.315Z,4.80
2022-10-01T11:23:24.360Z,4.59
2022-10-01T11:24:24.403Z,4.00
2022-10-01T11:25:24.453Z,4.40
2022-10-01T11:26:24.497Z,4.00
2022-10-01T11:27:24.547Z,4.19
2022-10-01T11:28:24.636Z,3.59
2022-10-01T11:29:24.665Z,3.70
2022-10-01T11:30:24.694Z,3.79
2022-10-01T11:31:24.816Z,3.79
2022-10-01T11:32:24.798Z,3.79
2022-10-01T11:33:24.856Z,4.50
2022-10-01T11:34:24.912Z,4.19
2022-10-01T11:35:24.977Z,4.69
2022-10-01T11:36:25.037Z,4.80
2022-10-01T11:37:25.102Z,5.30
2022-10-01T11:38:25.168Z,5.59
2022-10-01T11:39:25.235Z,6.00
2022-10-01T11:40:25.297Z,6.40
2022-10-01T11:41:25.361Z,7.00
2022-10-01T11:42:25.430Z,6.50
2022-10-01T11:43:25.503Z,6.90
2022-10-01T11:44:25.565Z,7.90
2022-10-01T11:45:25.656Z,8.30
2022-10-01T11:46:25.713Z,8.60
2022-10-01T11:47:25.739Z,9.50
2022-10-01T11:48:25.811Z,8.39
2022-10-01T11:49:25.836Z,9.19
2022-10-01T11:50:25.883Z,8.60
2022-10-01T11:51:25.929Z,9.60
2022-10-01T11:52:25.972Z,9.30
2022-10-01T11:53:26.013Z,8.00
2022-10-01T11:54:26.033Z,8.39
2022-10-01T11:55:26.045Z,9.30
2022-10-01T11:56:26.045Z,8.89
2022-10-01T11:57:26.035Z,6.80
2022-10-01T11:58:26.020Z,5.59
2022-10-01T11:59:25.997Z,4.40
2022-10-01T12:00:27.447Z,4.09
2022-10-01T12:01:25.974Z,3.70
2022-10-01T12:02:25.969Z,3.40
2022-10-01T12:03:25.899Z,3.50
2022-10-01T12:04:25.862Z,3.50
2022-10-01T12:05:25.962Z,3.00
2022-10-01T12:06:28.416Z,3.00
2022-10-01T12:07:25.721Z,2.50
2022-10-01T12:08:25.660Z,2.09
2022-10-01T12:09:25.595Z,1.60
2022-10-01T12:10:25.523Z,1.70
2022-10-01T12:11:25.451Z,1.39
2022-10-01T12:12:25.376Z,1.60
2022-10-01T12:13:25.298Z,1.29
2022-10-01T12:14:25.209Z,1.60
2022-10-01T12:15:25.119Z,1.39
2022-10-01T12:16:25.103Z,1.50
2022-10-01T12:17:24.965Z,1.60
2022-10-01T12:18:24.853Z,1.10
2022-10-01T12:19:24.757Z,1.10
2022-10-01T12:20:24.669Z,1.20
2022-10-01T12:21:24.561Z,1.10
2022-10-01T12:22:24.851Z,1.20
2022-10-01T12:23:24.361Z,1.00
2022-10-01T12:24:24.258Z,1.29
2022-10-01T12:25:24.146Z,1.10
2022-10-01T12:26:24.044Z,1.10
2022-10-01T12:27:23.936Z,1.20
2022-10-01T12:28:23.948Z,1.10
2022-10-01T12:29:23.720Z,1.10
2022-10-01T12:30:23.612Z,1.20
2022-10-01T12:31:23.579Z,1.29
2022-10-01T12:32:23.373Z,1.29
2022-10-01T12:33:23.283Z,0.90
2022-10-01T12:34:23.150Z,1.00
2022-10-01T12:35:23.064Z,0.90
2022-10-01T12:36:22.984Z,0.90
2022-10-01T12:37:22.917Z,1.00
2022-10-01T12:38:22.855Z,0.90
2022-10-01T12:39:22.804Z,0.90
2022-10-01T12:40:22.765Z,0.90
2022-10-01T12:41:22.727Z,1.00
2022-10-01T12:42:22.667Z,0.90
2022-10-01T12:43:22.600Z,0.90
2022-10-01T12:44:22.536Z,0.80
2022-10-01T12:45:22.482Z,0.80
2022-10-01T12:46:22.634Z,1.00
2022-10-01T12:47:22.388Z,0.70
2022-10-01T12:48:22.351Z,0.90
2022-10-01T12:49:22.423Z,1.50
2022-10-01T12:50:22.303Z,0.80
2022-10-01T12:51:22.286Z,1.10
2022-10-01T12:52:22.279Z,1.20
2022-10-01T12:53:22.263Z,1.39
2022-10-01T12:54:22.282Z,1.20
2022-10-01T12:55:22.291Z,1.29
2022-10-01T12:56:22.313Z,1.60
2022-10-01T12:57:22.336Z,1.60
2022-10-01T12:58:22.363Z,1.79
2022-10-01T12:59:22.397Z,2.59
2022-10-01T13:00:22.466Z,2.40
2022-10-01T13:01:22.538Z,2.50
2022-10-01T13:02:22.634Z,2.59
2022-10-01T13:03:22.573Z,3.29
2022-10-01T13:04:22.620Z,2.79
2022-10-01T13:05:24.618Z,2.90
2022-10-01T13:06:22.670Z,2.90
2022-10-01T13:07:22.775Z,3.29
2022-10-01T13:08:22.821Z,3.79
2022-10-01T13:09:22.866Z,3.79